Latest Coastal Weather Observations for Flinders Island Airport

IDV60701

Issued at 7:52 pm EST Monday 4 May 2026 (issued every 10 minutes, with the page automatically refreshed every 10 minutes)

About coastal observations | Map of coastal stations | Coastal observations for VIC | Marine services | Other Formats
Station Details ID: 099005 Name: FLINDERS ISLAND AIRPORT Lat: -40.09 Lon: 148.00 Height: 9.0 m
Data from the previous 72 hours. | See also: Recent months at Flinders Island Airport
Date/Time
EST
Wind Sea
Height
m
Swell Vis
km
Cloud Weather Temp
°C
Press
MSL
hPa
Rain since
9am
mm
Dir  Spd
kts
Gust
kts
Height
m
Period
s
Dir
04/07:30pm NNE 10 13 - - - - 10 Cloudy - 15.4 1010.0 0.0
04/07:00pm NNE 11 13 - - - - 10 Cloudy - 15.1 1010.2 0.0
04/06:30pm NNE 11 13 - - - - 10 - - 14.7 1010.1 0.0
04/06:00pm NNE 11 13 - - - - 10 - - 15.0 1009.9 0.0
04/05:30pm NNE 10 13 - - - - 10 - - 15.7 1009.7 0.0
04/05:00pm NNE 9 12 - - - - 10 - - 16.5 1009.6 0.0
04/04:30pm N 8 14 - - - - 10 Partly cloudy - 17.6 1009.5 0.0
04/04:00pm NNW 9 15 - - - - 10 Partly cloudy - 18.5 1009.4 0.0
04/03:30pm NNW 9 14 - - - - 10 Mostly clear - 19.0 1009.5 0.0
04/03:00pm NNW 11 16 - - - - 10 - - 19.4 1009.4 0.0
04/02:30pm NNW 12 16 - - - - 10 - - 19.3 1009.6 0.0
04/02:00pm NNW 12 18 - - - - 10 - - 20.0 1009.7 0.0
04/01:30pm NW 12 17 - - - - 10 - - 19.1 1009.9 0.0
04/01:00pm NW 14 18 - - - - 10 - - 19.1 1010.2 0.0
04/12:30pm NW 13 18 - - - - 10 - - 19.0 1010.5 0.0
04/12:00pm NW 11 17 - - - - 10 - - 19.5 1011.0 0.0
04/11:30am NW 11 16 - - - - 10 - - 18.6 1011.5 0.0
04/11:00am NNW 12 16 - - - - 10 - - 18.6 1011.8 0.0
04/10:30am NW 11 16 - - - - 10 Mostly clear - 18.2 1012.1 0.0
04/10:00am NW 11 14 - - - - 10 Cloudy - 17.4 1012.2 0.0
04/09:30am NW 7 10 - - - - 10 Partly cloudy - 17.0 1012.3 0.0
04/09:00am NW 7 10 - - - - 10 Mostly clear Recent precip. 17.1 1012.4 12.6
04/08:30am NNW 5 8 - - - - 10 Mostly clear - 16.3 1012.1 12.4
04/08:00am N 6 8 - - - - 10 Mostly clear - 15.5 1011.8 12.4
04/07:30am NW 7 8 - - - - 10 Partly cloudy - 14.4 1011.7 12.4
04/07:00am NNW 7 9 - - - - 10 - - 14.0 1011.5 12.4
04/06:30am NNW 6 8 - - - - 10 - - 14.1 1011.3 12.4
04/06:00am NNW 6 8 - - - - 10 - - 14.4 1011.3 12.4
04/05:30am NNW 7 9 - - - - 10 - - 14.8 1011.0 12.4
04/05:00am NNW 6 8 - - - - 10 - - 14.8 1011.0 12.4
04/04:30am NNW 5 6 - - - - 10 - - 15.0 1010.8 12.4
04/04:00am NNW 7 10 - - - - 10 - - 15.2 1010.8 12.4
04/03:30am NNW 7 9 - - - - 10 Partly cloudy - 15.1 1010.7 12.4
04/03:00am NNW 6 9 - - - - 10 Cloudy - 15.0 1010.9 12.4
04/02:30am NNW 7 10 - - - - 10 Partly cloudy - 15.1 1011.4 12.4
04/02:00am NNW 6 9 - - - - 10 - - 15.1 1011.2 12.4
04/01:30am NNW 8 11 - - - - 10 - - 14.7 1012.1 12.4
04/01:00am N 4 5 - - - - 10 Mostly clear - 14.0 1011.7 12.4
04/12:30am N 6 10 - - - - 10 Partly cloudy - 14.3 1012.0 12.4
04/12:00am NNW 7 9 - - - - 10 Cloudy Rain 13.6 1011.5 12.4
 
Date/Time
EST
Wind Sea
Height
m
Swell Vis
km
Cloud Weather Temp
°C
Press
MSL
hPa
Rain since
9am
mm
Dir  Spd
kts
Gust
kts
Height
m
Period
s
Dir
03/11:30pm NNW 9 13 - - - - 10 Mostly clear - 13.9 1011.4 12.4
03/11:00pm NW 10 13 - - - - 10 Mostly clear - 16.1 1012.1 11.4
03/10:42pm NW 7 9 - - - - 9 Mostly clear - 16.1 1011.9 10.6
03/10:41pm NW 7 9 - - - - 8 Partly cloudy - 16.1 1011.9 10.4
03/10:30pm NW 8 13 - - - - 4 Partly cloudy - 16.2 1012.0 9.8
03/10:18pm NW 10 14 - - - - 5 Partly cloudy - 16.4 1012.3 8.2
03/10:02pm NW 9 12 - - - - 10 Partly cloudy - 17.3 1012.2 6.8
03/10:00pm NW 9 12 - - - - 10 Partly cloudy - 17.5 1012.2 6.6
03/09:35pm NNE 18 28 - - - - 10 Mostly clear - 17.9 1011.9 6.4
03/09:30pm NNE 20 28 - - - - 10 Mostly clear - 17.8 1011.5 6.4
03/09:00pm NNE 20 30 - - - - 10 Mostly cloudy Showers 18.5 1011.8 3.8
03/08:58pm NNE 20 30 - - - - 10 Cloudy - 18.5 1011.7 3.8
03/08:30pm NNE 22 30 - - - - 10 Partly cloudy - 19.0 1010.8 3.2
03/08:00pm NE 25 36 - - - - 10 Mostly clear - 19.6 1009.8 3.2
03/07:56pm NE 22 35 - - - - 10 Partly cloudy - 19.9 1010.1 3.2
03/07:30pm NE 21 26 - - - - 10 Mostly clear - 19.4 1010.7 3.2
03/07:00pm NE 17 22 - - - - 10 Mostly clear - 18.9 1010.7 3.2
03/06:30pm NE 20 26 - - - - 10 Mostly clear - 18.3 1011.0 3.2
03/06:00pm NE 17 22 - - - - 10 Cloudy Rain 18.1 1010.8 3.2
03/05:30pm NE 15 20 - - - - 10 Cloudy - 17.9 1010.6 3.2
03/05:00pm NE 15 20 - - - - 10 Cloudy - 17.7 1010.9 3.2
03/04:30pm ENE 6 12 - - - - 10 Cloudy - 17.6 1012.1 2.4
03/04:08pm NNE 4 5 - - - - 10 Mostly clear - 17.5 1012.6 2.0
03/04:00pm NNW 5 9 - - - - 6 Mostly clear - 17.5 1012.8 1.8
03/03:52pm NW 11 17 - - - - 5 Mostly clear - 17.5 1012.8 1.4
03/03:30pm NW 8 13 - - - - 10 Mostly clear - 18.5 1013.2 0.2
03/03:00pm NNE 15 21 - - - - 10 Cloudy - 19.3 1012.3 0.0
03/02:30pm NNE 15 20 - - - - 10 Cloudy - 19.8 1011.8 0.0
03/02:00pm NNE 16 20 - - - - 10 Cloudy - 20.0 1011.3 0.0
03/01:30pm NNE 15 18 - - - - 10 Partly cloudy - 19.8 1011.7 0.0
03/01:00pm NNE 14 19 - - - - 10 Partly cloudy - 20.1 1012.6 0.0
03/12:30pm NNE 16 23 - - - - 10 Cloudy - 20.2 1012.5 0.0
03/12:00pm NNE 18 24 - - - - 10 Cloudy - 20.2 1012.9 0.0
03/11:30am NNE 19 27 - - - - 10 Partly cloudy - 21.3 1012.9 0.0
03/11:00am NNE 19 25 - - - - 10 Mostly clear - 21.4 1013.3 0.0
03/10:30am NNE 18 26 - - - - 10 Partly cloudy - 20.7 1013.8 0.0
03/10:00am NNE 17 23 - - - - 10 Mostly clear - 20.9 1013.8 0.0
03/09:30am NNE 18 22 - - - - 10 Mostly clear - 21.3 1014.1 0.0
03/09:00am NNE 16 22 - - - - 10 Partly cloudy - 19.9 1014.7 0.0
03/08:30am NNE 17 20 - - - - 10 - - 19.1 1014.7 0.0
03/08:00am NNE 16 19 - - - - 10 - - 19.1 1014.6 0.0
03/07:30am NNE 17 23 - - - - 10 - - 18.7 1014.5 0.0
03/07:00am NNE 16 20 - - - - 10 - - 18.4 1014.4 0.0
03/06:30am NNE 17 20 - - - - 10 - - 18.3 1014.4 0.0
03/06:00am NNE 17 20 - - - - 10 - - 18.3 1014.2 0.0
03/05:30am NNE 16 20 - - - - 10 - - 18.2 1014.4 0.0
03/05:00am NNE 17 20 - - - - 10 - - 18.2 1014.7 0.0
03/04:30am NNE 16 20 - - - - 10 - - 18.2 1014.9 0.0
03/04:00am NNE 13 16 - - - - 10 - - 18.5 1014.9 0.0
03/03:30am NE 13 16 - - - - 10 - - 17.5 1015.1 0.0
03/03:00am NNE 13 15 - - - - 10 Partly cloudy - 17.9 1015.3 0.0
03/02:30am NNE 14 16 - - - - 10 - - 18.4 1015.5 0.0
03/02:00am NNE 13 16 - - - - 10 - - 18.3 1015.7 0.0
03/01:30am NE 12 15 - - - - 10 - - 18.1 1016.3 0.0
03/01:00am NE 9 13 - - - - 10 - - 17.3 1016.7 0.0
03/12:30am NE 14 17 - - - - 10 - - 17.8 1016.9 0.0
03/12:00am NNE 13 16 - - - - 10 - - 17.6 1017.1 0.0
 
Date/Time
EST
Wind Sea
Height
m
Swell Vis
km
Cloud Weather Temp
°C
Press
MSL
hPa
Rain since
9am
mm
Dir  Spd
kts
Gust
kts
Height
m
Period
s
Dir
02/11:30pm NNE 15 18 - - - - 10 - - 18.7 1017.3 0.0
02/11:00pm NNE 14 16 - - - - 10 - - 18.9 1017.7 0.0
02/10:30pm NNE 13 15 - - - - 10 - - 18.5 1018.0 0.0
02/10:00pm NNE 14 17 - - - - 10 - - 18.4 1018.1 0.0
02/09:30pm NNE 14 16 - - - - 10 - - 18.3 1018.0 0.0
02/09:00pm NNE 14 17 - - - - 10 Mostly cloudy - 18.1 1018.0 0.0
02/08:30pm NNE 13 16 - - - - 10 - - 18.0 1018.0 0.0
02/08:00pm NNE 12 15 - - - - 10 - - 17.4 1018.1 0.0
02/07:30pm NE 13 17 - - - - 10 - - 17.4 1018.0 0.0
02/07:00pm NNE 13 15 - - - - 10 - - 17.9 1018.1 0.0
02/06:30pm NNE 12 15 - - - - 10 - - 17.9 1018.0 0.0
02/06:00pm NE 7 10 - - - - 10 Cloudy - 17.9 1017.7 0.0
02/05:30pm NE 6 12 - - - - 10 - - 17.8 1017.5 0.0
02/05:00pm E 5 7 - - - - 10 - - 17.6 1017.4 0.0
02/04:30pm E 5 6 - - - - 10 - - 18.6 1017.6 0.0
02/04:00pm ESE 5 6 - - - - 10 - - 19.6 1017.7 0.0
02/03:30pm E 5 6 - - - - 10 - - 20.1 1017.8 0.0
02/03:00pm NNE 5 9 - - - - 10 Mostly clear - 20.8 1017.9 0.0
02/02:30pm NNE 7 10 - - - - 10 - - 21.5 1017.9 0.0
02/02:00pm NNE 12 15 - - - - 10 - - 20.2 1018.2 0.0
02/01:30pm NNE 13 17 - - - - 10 - - 20.6 1018.6 0.0
02/01:00pm NNE 13 20 - - - - 10 - - 20.7 1019.1 0.0
02/12:30pm NNE 16 19 - - - - 10 - - 21.1 1019.4 0.0
02/12:00pm NNE 17 20 - - - - 10 Partly cloudy - 20.9 1019.9 0.0
02/11:30am NNE 18 22 - - - - 10 - - 20.8 1020.2 0.0
02/11:00am NNE 19 24 - - - - 10 - - 21.3 1020.5 0.0
02/10:30am NE 18 20 - - - - 10 - - 20.6 1020.7 0.0
02/10:00am NNE 15 18 - - - - 10 - - 20.3 1020.7 0.0
02/09:30am NNE 17 22 - - - - 10 - - 19.2 1021.0 0.0
02/09:00am NNE 16 22 - - - - 10 Mostly clear - 18.8 1021.1 0.0
02/08:30am NE 14 16 - - - - 10 - - 18.3 1021.1 0.0
02/08:00am NE 13 15 - - - - 10 - - 17.6 1021.1 0.0
02/07:30am NE 10 12 - - - - 10 - - 16.8 1020.8 0.0
02/07:00am ENE 8 11 - - - - 10 - - 16.9 1020.8 0.0
02/06:30am SE 5 7 - - - - 10 - - 16.5 1021.0 0.0
02/06:00am ESE 5 7 - - - - 10 Partly cloudy - 16.5 1020.9 0.0
02/05:30am ESE 4 6 - - - - 10 - - 16.4 1020.9 0.0
02/05:00am SE 4 5 - - - - 10 - - 16.6 1020.9 0.0
02/04:30am E 5 6 - - - - 10 - - 16.8 1021.0 0.0
02/04:00am ENE 7 10 - - - - 10 - - 17.0 1021.2 0.0
02/03:30am NE 11 14 - - - - 10 - - 17.1 1021.3 0.0
02/03:00am NE 10 15 - - - - 10 - - 17.3 1021.7 0.0
02/02:30am NE 9 11 - - - - 10 - - 17.1 1022.0 0.0
02/02:00am NE 15 20 - - - - 10 - - 17.0 1022.4 0.0
02/01:30am NE 17 20 - - - - 10 - - 17.1 1022.6 0.0
02/01:00am NE 16 18 - - - - 10 - - 16.3 1023.0 0.0
02/12:30am ENE 12 15 - - - - 10 - - 16.8 1023.3 0.0
02/12:00am NE 15 18 - - - - 10 - - 17.9 1023.5 0.0
 
Date/Time
EST
Wind Sea
Height
m
Swell Vis
km
Cloud Weather Temp
°C
Press
MSL
hPa
Rain since
9am
mm
Dir  Spd
kts
Gust
kts
Height
m
Period
s
Dir
01/11:30pm NNE 14 17 - - - - 10 - - 18.8 1023.6 0.0
01/11:00pm NNE 15 19 - - - - 10 - - 19.0 1023.7 0.0
01/10:30pm NNE 15 20 - - - - 10 - - 18.9 1024.1 0.0
01/10:00pm NNE 15 18 - - - - 10 - - 19.0 1024.2 0.0
01/09:30pm NNE 15 18 - - - - 10 - - 19.0 1024.2 0.0
01/09:00pm NNE 15 18 - - - - 10 - - 18.9 1024.2 0.0
01/08:30pm NNE 16 19 - - - - 10 - - 18.8 1024.1 0.0
01/08:00pm NNE 16 19 - - - - 10 - - 18.9 1024.1 0.0

Other formats

Comma delimited format used in spreadsheet applications
http://www.bom.gov.au/fwo/IDV60701/IDV60701.94980.axf

JavaScript Object Notation format (JSON) in row-major order
http://www.bom.gov.au/fwo/IDV60701/IDV60701.94980.json

Data quality

Most of these data are generated automatically and are frequently updated. Quality checks on data are not normally performed. It is possible for incorrect values to appear. Refer to information at About Latest Weather Observations and please check the disclaimer before using these data.